Whitewood, Canada
Current Conditions -  °F | °C
As of 3:00 PM on Sunday 21 Dec 2014 (Local Time) from CYQV Reporting Station
Overcast Overcast  
Wind Chill: 17°   Ceiling: 300
Heat Index: 27°   Visibility: 7mi
Dew Point: 27°   Wind: 10mph
Humidity: 100%   Direction: 110°ESE
Pressure: 29.44"   Gusts: NA
Location:  50.33°N, 102.25°W
Report Text: CYQV 212100Z AUTO 11009KT 7SM OVC003 M03/M03 A2944 RMK SLP996
Loading
Personal Weather Stations






























Interactive Weather Map New forecast layout! Learn more

10-Day Weather Forecast

Advertisements
Track Severe Weather on mobile